Time;durP1;ratioP1;P1;durP2;ratioP2;P2;SDS_P1;SDS_P2;PMS_P1;PMS_P2;Temp;Humidity;BMP_temperature;BMP_pressure;BME280_temperature;BME280_humidity;BME280_pressure;Samples;Min_cycle;Max_cycle;Signal;HPM_P1;HPM_P2
2022/10/16 00:01:51;;;;;;;3.1;2;;;;;;;12.8;100;938.9113;;;;
2022/10/16 00:04:21;;;;;;;3.9;2.4;;;;;;;12.83;100;938.9188;;;;
2022/10/16 00:06:49;;;;;;;3.8;2.2;;;;;;;12.83;100;938.9827;;;;
2022/10/16 00:09:14;;;;;;;3.1;2.1;;;;;;;12.8;100;939.0031;;;;
2022/10/16 00:11:47;;;;;;;2.8;2;;;;;;;12.77;100;938.9472;;;;
2022/10/16 00:14:18;;;;;;;4.2;2.3;;;;;;;12.74;100;938.991;;;;
2022/10/16 00:16:50;;;;;;;3.5;2.3;;;;;;;12.77;100;938.9751;;;;
2022/10/16 00:19:15;;;;;;;2.3;2.1;;;;;;;12.76;100;938.9911;;;;
2022/10/16 00:21:40;;;;;;;3;2.1;;;;;;;12.72;100;938.9662;;;;
2022/10/16 00:24:05;;;;;;;4;2.4;;;;;;;12.69;100;939.0181;;;;
2022/10/16 00:26:36;;;;;;;3.2;2;;;;;;;12.55;100;938.9408;;;;
2022/10/16 00:29:02;;;;;;;3.2;2.4;;;;;;;12.63;100;938.9189;;;;
2022/10/16 00:31:30;;;;;;;4.1;2.4;;;;;;;12.61;100;938.9425;;;;
2022/10/16 00:33:55;;;;;;;3.4;2.6;;;;;;;12.63;100;938.978;;;;
2022/10/16 00:36:25;;;;;;;4.1;2.5;;;;;;;12.78;100;939.0095;;;;
2022/10/16 00:38:52;;;;;;;3.8;2.6;;;;;;;12.79;100;938.9744;;;;
2022/10/16 00:41:15;;;;;;;3.1;2.3;;;;;;;12.87;100;938.9764;;;;
2022/10/16 00:43:42;;;;;;;3.2;2.1;;;;;;;12.81;100;939.0488;;;;
2022/10/16 00:46:07;;;;;;;2.4;2;;;;;;;12.76;100;939.0238;;;;
2022/10/16 00:48:32;;;;;;;3.5;1.9;;;;;;;12.83;100;939.0378;;;;
2022/10/16 00:50:57;;;;;;;3.3;2.1;;;;;;;12.92;99.65039;939.0876;;;;
2022/10/16 00:53:24;;;;;;;3.2;2.3;;;;;;;12.7;100;939.0613;;;;
2022/10/16 00:55:49;;;;;;;2.7;2.1;;;;;;;12.62;100;939.081;;;;
2022/10/16 00:58:16;;;;;;;2.4;2;;;;;;;12.7;100;939.0477;;;;
2022/10/16 01:00:41;;;;;;;3.1;1.8;;;;;;;12.66;100;938.9397;;;;
2022/10/16 01:03:08;;;;;;;3.1;2.1;;;;;;;12.62;100;938.974;;;;
2022/10/16 01:05:34;;;;;;;4.3;2.2;;;;;;;12.53;100;938.9047;;;;
2022/10/16 01:07:59;;;;;;;4.5;2.2;;;;;;;12.46;100;939.022;;;;
2022/10/16 01:10:29;;;;;;;3.4;2;;;;;;;12.43;100;939.0673;;;;
2022/10/16 01:12:54;;;;;;;2.3;2.1;;;;;;;12.27;100;939.1;;;;
2022/10/16 01:15:19;;;;;;;3.1;2.1;;;;;;;12.27;100;939.0936;;;;
2022/10/16 01:17:44;;;;;;;6.3;2.9;;;;;;;12.09;100;938.9999;;;;
2022/10/16 01:20:10;;;;;;;3.5;2.4;;;;;;;12.21;100;939.0251;;;;
2022/10/16 01:22:36;;;;;;;2.9;2.3;;;;;;;12.27;100;939.0201;;;;
2022/10/16 01:25:03;;;;;;;2.7;2.3;;;;;;;12.19;100;939.0619;;;;
2022/10/16 01:27:29;;;;;;;3.4;2.1;;;;;;;12.35;100;939.058;;;;
2022/10/16 01:29:54;;;;;;;4.3;2.5;;;;;;;12.43;100;939.1328;;;;
2022/10/16 01:32:19;;;;;;;3.3;2.2;;;;;;;12.47;100;939.1809;;;;
2022/10/16 01:34:44;;;;;;;2.9;2.4;;;;;;;12.55;100;939.2386;;;;
2022/10/16 01:37:10;;;;;;;4.8;2.5;;;;;;;12.59;100;939.27;;;;
2022/10/16 01:39:35;;;;;;;4.6;2.2;;;;;;;12.67;100;939.2657;;;;
2022/10/16 01:42:00;;;;;;;2.7;2.2;;;;;;;12.68;100;939.2776;;;;
2022/10/16 01:44:25;;;;;;;3.5;2.7;;;;;;;12.64;100;939.2584;;;;
2022/10/16 01:46:50;;;;;;;4.8;2.3;;;;;;;12.51;100;939.2258;;;;
2022/10/16 01:49:15;;;;;;;5.8;2.4;;;;;;;12.44;100;939.2455;;;;
2022/10/16 01:51:40;;;;;;;3.1;2.8;;;;;;;12.53;100;939.2642;;;;
2022/10/16 01:54:05;;;;;;;2.8;2.3;;;;;;;12.57;100;939.2459;;;;
2022/10/16 01:56:31;;;;;;;2.5;2.2;;;;;;;12.65;100;939.2137;;;;
2022/10/16 01:58:56;;;;;;;2.4;2.2;;;;;;;12.64;100;939.1586;;;;
2022/10/16 02:01:21;;;;;;;5.6;2.2;;;;;;;12.7;100;939.1284;;;;
2022/10/16 02:03:47;;;;;;;2.6;2.3;;;;;;;12.72;100;939.178;;;;
2022/10/16 02:06:12;;;;;;;2.9;2;;;;;;;12.65;100;939.1434;;;;
2022/10/16 02:08:43;;;;;;;2.9;2.6;;;;;;;12.54;100;939.2131;;;;
2022/10/16 02:11:06;;;;;;;3.2;2.2;;;;;;;12.61;100;939.2148;;;;
2022/10/16 02:13:33;;;;;;;3.9;2.3;;;;;;;12.58;100;939.3083;;;;
2022/10/16 02:15:58;;;;;;;2.6;2.4;;;;;;;12.5;100;939.2968;;;;
2022/10/16 02:18:30;;;;;;;3.2;2.8;;;;;;;12.31;100;939.3038;;;;
2022/10/16 02:20:53;;;;;;;3.6;2.7;;;;;;;12.18;100;939.334;;;;
2022/10/16 02:23:19;;;;;;;2.9;2.6;;;;;;;12.24;100;939.3337;;;;
2022/10/16 02:25:44;;;;;;;4.6;3.2;;;;;;;12.24;100;939.4296;;;;
2022/10/16 02:28:41;;;;;;;4;2.8;;;;;;;12.27;100;939.3739;;;;
2022/10/16 02:31:06;;;;;;;4.2;2.8;;;;;;;12.19;100;939.3772;;;;
2022/10/16 02:33:31;;;;;;;4.2;2.8;;;;;;;12.26;100;939.3403;;;;
2022/10/16 02:35:58;;;;;;;3.3;2.9;;;;;;;12.42;100;939.3764;;;;
2022/10/16 02:38:23;;;;;;;3.5;2.7;;;;;;;12.49;100;939.4006;;;;
2022/10/16 02:40:48;;;;;;;4.2;2.8;;;;;;;12.69;100;939.4335;;;;
2022/10/16 02:43:15;;;;;;;2.9;2.5;;;;;;;12.71;100;939.3122;;;;
2022/10/16 02:45:43;;;;;;;3.5;2.5;;;;;;;12.63;100;939.4414;;;;
2022/10/16 02:48:08;;;;;;;3.8;2.5;;;;;;;12.67;100;939.3767;;;;
2022/10/16 02:50:38;;;;;;;3.4;2.3;;;;;;;12.62;100;939.4094;;;;
2022/10/16 02:53:08;;;;;;;4.5;2.5;;;;;;;12.37;100;939.3934;;;;
2022/10/16 02:55:33;;;;;;;5.9;2.6;;;;;;;12.4;100;939.3936;;;;
2022/10/16 02:57:59;;;;;;;2.6;2.2;;;;;;;12.61;100;939.3922;;;;
2022/10/16 03:02:55;;;;;;;3.9;2.7;;;;;;;12.37;100;939.4925;;;;
2022/10/16 03:05:20;;;;;;;5.4;2.8;;;;;;;12.35;100;939.4756;;;;
2022/10/16 03:07:47;;;;;;;2.8;2.3;;;;;;;12.41;100;939.4666;;;;
2022/10/16 03:10:13;;;;;;;4.3;2.6;;;;;;;12.49;100;939.395;;;;
2022/10/16 03:12:40;;;;;;;2.7;2.2;;;;;;;12.39;100;939.2833;;;;
2022/10/16 03:15:05;;;;;;;2.6;2.3;;;;;;;12.38;100;939.3072;;;;
2022/10/16 03:17:34;;;;;;;3.9;2.5;;;;;;;12.37;100;939.423;;;;
2022/10/16 03:20:01;;;;;;;2.9;2.4;;;;;;;12.4;100;939.4055;;;;
2022/10/16 03:22:26;;;;;;;3;2.6;;;;;;;12.28;100;939.4011;;;;
2022/10/16 03:24:54;;;;;;;3.2;2.4;;;;;;;12.25;100;939.4967;;;;
2022/10/16 03:27:20;;;;;;;2.4;2.2;;;;;;;12.35;100;939.5611;;;;
2022/10/16 03:29:45;;;;;;;3.4;2.4;;;;;;;12.45;100;939.5234;;;;
2022/10/16 03:33:24;;;;;;;3.1;2.5;;;;;;;12.47;100;939.5387;;;;
2022/10/16 03:35:52;;;;;;;2.6;2.4;;;;;;;12.45;100;939.5634;;;;
2022/10/16 03:40:48;;;;;;;3.8;2.4;;;;;;;12.58;100;939.6214;;;;
2022/10/16 03:43:14;;;;;;;3.2;2.5;;;;;;;12.43;100;939.6376;;;;
2022/10/16 03:48:14;;;;;;;3.3;2.6;;;;;;;12.6;100;939.5967;;;;
2022/10/16 03:50:41;;;;;;;3.1;2.4;;;;;;;12.5;100;939.6203;;;;
2022/10/16 03:53:06;;;;;;;3.2;2.5;;;;;;;12.55;100;939.6692;;;;
2022/10/16 03:55:33;;;;;;;4.8;2.8;;;;;;;12.48;100;939.6746;;;;
2022/10/16 03:57:58;;;;;;;3.6;2.5;;;;;;;12.59;100;939.6885;;;;
2022/10/16 04:03:08;;;;;;;3.6;2.5;;;;;;;12.69;100;939.6884;;;;
2022/10/16 04:18:14;;;;;;;5.5;2.9;;;;;;;12.42;100;939.7261;;;;
2022/10/16 04:20:39;;;;;;;3.3;2.7;;;;;;;12.39;100;939.6379;;;;
2022/10/16 04:23:04;;;;;;;4.4;2.9;;;;;;;12.44;100;939.7159;;;;
2022/10/16 04:25:32;;;;;;;3;2.7;;;;;;;12.45;100;939.6608;;;;
2022/10/16 04:27:57;;;;;;;4.7;3.1;;;;;;;12.39;100;939.7681;;;;
2022/10/16 04:30:26;;;;;;;3.6;3;;;;;;;12.5;100;939.7336;;;;
2022/10/16 04:32:52;;;;;;;5.1;3.9;;;;;;;12.48;100;939.8447;;;;
2022/10/16 04:35:20;;;;;;;4;3.2;;;;;;;12.37;100;939.8622;;;;
2022/10/16 04:37:53;;;;;;;4.7;3.8;;;;;;;12.4;100;939.7952;;;;
2022/10/16 04:40:22;;;;;;;9.2;4.6;;;;;;;12.39;100;939.8272;;;;
2022/10/16 04:42:54;;;;;;;10.2;4.8;;;;;;;12.39;100;939.9102;;;;
2022/10/16 04:45:25;;;;;;;7.6;4;;;;;;;12.4;100;939.899;;;;
2022/10/16 04:47:54;;;;;;;5.3;3.3;;;;;;;12.37;100;939.9085;;;;
2022/10/16 04:50:19;;;;;;;4.1;3.1;;;;;;;12.33;100;939.8667;;;;
2022/10/16 04:52:59;;;;;;;4.3;2.9;;;;;;;12.3;100;939.8514;;;;
2022/10/16 04:55:24;;;;;;;5.1;3.1;;;;;;;12.22;100;939.8111;;;;
2022/10/16 04:57:50;;;;;;;3.5;3;;;;;;;12.34;100;939.7216;;;;
2022/10/16 05:00:15;;;;;;;5.7;2.5;;;;;;;12.36;100;939.7767;;;;
2022/10/16 05:02:43;;;;;;;3.6;2.6;;;;;;;12.35;100;939.767;;;;
2022/10/16 05:05:08;;;;;;;3.5;2.7;;;;;;;12.32;100;939.7502;;;;
2022/10/16 05:07:37;;;;;;;3.6;3.1;;;;;;;12.26;100;939.7817;;;;
2022/10/16 05:10:06;;;;;;;3.8;2.8;;;;;;;12.21;100;939.7924;;;;
2022/10/16 05:13:09;;;;;;;3.2;2.9;;;;;;;12.2;100;939.7803;;;;
2022/10/16 05:15:35;;;;;;;5.2;3.1;;;;;;;12.16;100;939.7881;;;;
2022/10/16 05:18:08;;;;;;;3.4;2.9;;;;;;;12.14;100;939.7257;;;;
2022/10/16 05:20:34;;;;;;;3.5;2.8;;;;;;;12.09;100;939.6728;;;;
2022/10/16 05:23:03;;;;;;;4.1;3.2;;;;;;;12.05;100;939.7277;;;;
2022/10/16 05:25:28;;;;;;;3.6;3.1;;;;;;;12.06;100;939.7245;;;;
2022/10/16 05:27:56;;;;;;;6.1;3.6;;;;;;;12.24;100;939.7145;;;;
2022/10/16 05:30:55;;;;;;;5.8;3.3;;;;;;;12.26;100;939.6972;;;;
2022/10/16 05:33:20;;;;;;;4.2;3.5;;;;;;;12.33;100;939.6552;;;;
2022/10/16 05:35:45;;;;;;;3.4;2.6;;;;;;;12.39;100;939.6827;;;;
2022/10/16 05:38:50;;;;;;;3.5;2.9;;;;;;;12.37;100;939.6473;;;;
2022/10/16 05:41:21;;;;;;;4.9;3.1;;;;;;;12.45;100;939.5682;;;;
2022/10/16 05:43:44;;;;;;;4.6;2.9;;;;;;;12.42;100;939.5584;;;;
2022/10/16 05:46:10;;;;;;;4;3;;;;;;;12.56;100;939.543;;;;
2022/10/16 05:48:35;;;;;;;3.3;2.8;;;;;;;12.63;100;939.6147;;;;
2022/10/16 05:51:01;;;;;;;3.5;2.7;;;;;;;12.63;100;939.554;;;;
2022/10/16 05:53:29;;;;;;;3.4;2.8;;;;;;;12.72;100;939.6486;;;;
2022/10/16 05:55:54;;;;;;;3.3;2.9;;;;;;;12.66;100;939.8074;;;;
2022/10/16 05:58:24;;;;;;;3.2;2.5;;;;;;;12.67;100;939.9256;;;;
2022/10/16 06:00:57;;;;;;;2.9;2.6;;;;;;;12.64;100;939.8752;;;;
2022/10/16 06:03:22;;;;;;;3.4;2.9;;;;;;;12.62;100;939.8279;;;;
2022/10/16 06:05:51;;;;;;;3.1;2.8;;;;;;;12.54;100;939.9623;;;;
2022/10/16 06:10:46;;;;;;;3.7;2.7;;;;;;;12.66;100;940.0006;;;;
2022/10/16 06:16:13;;;;;;;5.2;2.9;;;;;;;12.86;100;940.0209;;;;
2022/10/16 06:18:23;;;;;;;3.7;2.8;;;;;;;13.11;98.9707;940.0298;;;;
2022/10/16 06:21:19;;;;;;;3.3;2.6;;;;;;;13.26;97.54688;940.0564;;;;
2022/10/16 06:27:03;;;;;;;3.9;2.6;;;;;;;13.44;95.91992;940.1473;;;;
2022/10/16 06:29:32;;;;;;;3.5;2.8;;;;;;;13.58;95.41016;940.1195;;;;
2022/10/16 06:31:57;;;;;;;3.8;3.1;;;;;;;13.68;94.74121;940.1207;;;;
2022/10/16 06:34:23;;;;;;;4.4;3.1;;;;;;;13.91;94.52832;940.1322;;;;
2022/10/16 06:36:48;;;;;;;4.2;3.3;;;;;;;14.07;94.20605;940.202;;;;
2022/10/16 06:39:19;;;;;;;3.7;3.2;;;;;;;14.3;92.82715;940.2132;;;;
2022/10/16 06:41:48;;;;;;;6.1;3.7;;;;;;;14.51;91.94922;940.3167;;;;
2022/10/16 06:44:13;;;;;;;3.5;3.1;;;;;;;14.7;91.69141;940.286;;;;
2022/10/16 06:46:41;;;;;;;4.3;2.9;;;;;;;14.96;89.83203;940.3038;;;;
2022/10/16 06:49:06;;;;;;;3.7;2.7;;;;;;;15.23;89.09863;940.3489;;;;
2022/10/16 06:51:40;;;;;;;2.9;2.5;;;;;;;15.43;87.26074;940.3272;;;;
2022/10/16 06:54:00;;;;;;;3.5;2.4;;;;;;;15.55;85.03223;940.353;;;;
2022/10/16 06:56:31;;;;;;;4.7;2.8;;;;;;;15.89;85.19141;940.4125;;;;
2022/10/16 06:58:55;;;;;;;2.8;2.4;;;;;;;16.19;82.70313;940.44;;;;
2022/10/16 07:01:25;;;;;;;3.8;2.3;;;;;;;16.33;79.90625;940.3506;;;;
2022/10/16 07:03:56;;;;;;;3.6;2.6;;;;;;;16.72;79.29395;940.4392;;;;
2022/10/16 07:06:21;;;;;;;5.4;2.8;;;;;;;17.03;78.17969;940.4517;;;;
2022/10/16 07:08:48;;;;;;;2.2;2;;;;;;;16.75;75.7207;940.4905;;;;
2022/10/16 07:11:15;;;;;;;5;2.5;;;;;;;16.89;77.96973;940.5118;;;;
2022/10/16 07:13:43;;;;;;;2.4;2.1;;;;;;;17.19;75.4834;940.5455;;;;
2022/10/16 07:16:08;;;;;;;2.3;1.9;;;;;;;17.5;72.18555;940.5244;;;;
2022/10/16 07:18:33;;;;;;;2.2;1.7;;;;;;;17.89;69.32324;940.5148;;;;
2022/10/16 07:21:00;;;;;;;2;1.8;;;;;;;18.15;71.58203;940.5491;;;;
2022/10/16 07:23:25;;;;;;;3.8;2;;;;;;;18.49;66.8584;940.5825;;;;
2022/10/16 07:25:53;;;;;;;2.8;2.1;;;;;;;18.77;65.90234;940.5612;;;;
2022/10/16 07:28:17;;;;;;;2.8;2.3;;;;;;;19.04;65.11426;940.5778;;;;
2022/10/16 07:30:45;;;;;;;2.7;2.2;;;;;;;19.17;64.02637;940.5662;;;;
2022/10/16 07:33:10;;;;;;;7.5;2.9;;;;;;;19.27;64.74121;940.5832;;;;
2022/10/16 07:35:38;;;;;;;4.1;2.4;;;;;;;19.27;63.39063;940.6389;;;;
2022/10/16 07:38:03;;;;;;;4.2;2.5;;;;;;;19.19;65.61426;940.6951;;;;
2022/10/16 07:40:33;;;;;;;3.3;2.7;;;;;;;19.08;62.74609;940.7173;;;;
2022/10/16 07:43:05;;;;;;;4.3;2.7;;;;;;;18.97;65.48828;940.7151;;;;
2022/10/16 07:45:32;;;;;;;2.8;2.6;;;;;;;18.77;65.45996;940.787;;;;
2022/10/16 07:47:57;;;;;;;4.3;2.5;;;;;;;18.66;65.89551;940.7642;;;;
2022/10/16 07:50:27;;;;;;;2.4;2.2;;;;;;;18.38;66.34277;940.7849;;;;
2022/10/16 07:56:24;;;;;;;2.4;2.2;;;;;;;18.5;68.50098;940.7759;;;;
2022/10/16 07:58:50;;;;;;;2.9;2.1;;;;;;;18.49;68.8457;940.7972;;;;
2022/10/16 08:01:20;;;;;;;2;1.9;;;;;;;18.35;68.75586;940.7862;;;;
2022/10/16 08:03:44;;;;;;;3.4;2.2;;;;;;;18.28;69.64941;940.86;;;;
2022/10/16 08:06:11;;;;;;;3.3;2.2;;;;;;;18.39;69.78613;940.8871;;;;
2022/10/16 08:08:36;;;;;;;2.6;2.3;;;;;;;18.88;69.34961;940.8889;;;;
2022/10/16 08:11:03;;;;;;;3;2;;;;;;;20.28;63.37207;940.9553;;;;
2022/10/16 08:13:28;;;;;;;2.8;2.1;;;;;;;21.49;59.84473;940.9659;;;;
2022/10/16 08:16:01;;;;;;;3.6;2;;;;;;;23.12;54.37695;940.8898;;;;
2022/10/16 08:18:30;;;;;;;1.7;1.6;;;;;;;23.74;52.75977;940.9352;;;;
2022/10/16 08:20:55;;;;;;;1.9;1.7;;;;;;;23.56;51.73828;940.8627;;;;
2022/10/16 08:23:21;;;;;;;2.1;1.9;;;;;;;24.35;50.79395;940.9067;;;;
2022/10/16 08:25:47;;;;;;;2.1;1.6;;;;;;;24.76;49.07031;940.8964;;;;
2022/10/16 08:28:12;;;;;;;2.8;1.9;;;;;;;25.62;46.21191;940.9055;;;;
2022/10/16 08:30:40;;;;;;;1.7;1.6;;;;;;;25.98;44.72363;940.8599;;;;
2022/10/16 08:33:05;;;;;;;2.2;2;;;;;;;27;41.50586;940.8;;;;
2022/10/16 08:35:33;;;;;;;2.4;2.2;;;;;;;25.87;42.12402;940.7988;;;;
2022/10/16 08:37:58;;;;;;;2.8;2.3;;;;;;;26.7;40.62695;940.8713;;;;
2022/10/16 08:40:27;;;;;;;3.4;2.3;;;;;;;26.72;41.84766;940.9213;;;;
2022/10/16 08:42:56;;;;;;;4;2.4;;;;;;;25.78;42.59863;940.9677;;;;
2022/10/16 08:45:21;;;;;;;1.9;1.8;;;;;;;25.59;42.9707;940.9266;;;;
2022/10/16 08:47:48;;;;;;;1.8;1.7;;;;;;;26.37;41.35449;940.9175;;;;
2022/10/16 08:50:14;;;;;;;2.2;2;;;;;;;26;42.31348;940.9422;;;;
2022/10/16 08:52:42;;;;;;;2.3;2.1;;;;;;;25.66;41.14746;940.9587;;;;
2022/10/16 08:55:07;;;;;;;3.3;1.9;;;;;;;25.19;42.75586;940.9296;;;;
2022/10/16 08:57:35;;;;;;;2;1.8;;;;;;;24.88;44.02344;941.0015;;;;
2022/10/16 09:00:01;;;;;;;2.5;2;;;;;;;25.17;43.69824;940.9833;;;;
2022/10/16 09:02:26;;;;;;;2.2;1.9;;;;;;;25.52;42.1377;940.9377;;;;
2022/10/16 09:04:51;;;;;;;2.1;1.9;;;;;;;25.16;45.03027;940.9945;;;;
2022/10/16 09:07:20;;;;;;;2.3;2.1;;;;;;;25.27;44.11035;940.9662;;;;
2022/10/16 09:09:45;;;;;;;2.2;2;;;;;;;24.55;44.41504;940.9641;;;;
2022/10/16 09:12:11;;;;;;;2.5;2.1;;;;;;;24.24;45.95117;941.0106;;;;
2022/10/16 09:14:37;;;;;;;1.8;1.6;;;;;;;24.52;45.53223;941.0248;;;;
2022/10/16 09:17:01;;;;;;;2;1.8;;;;;;;23.99;45.39551;941.0826;;;;
2022/10/16 09:19:26;;;;;;;4.3;2;;;;;;;23.8;47.11914;941.0884;;;;
2022/10/16 09:21:53;;;;;;;2.1;1.9;;;;;;;23.61;46.68555;941.1156;;;;
2022/10/16 09:24:16;;;;;;;1.9;1.8;;;;;;;23.93;45.81348;941.183;;;;
2022/10/16 09:26:44;;;;;;;3.4;1.8;;;;;;;23.98;47.07813;941.2136;;;;
2022/10/16 09:29:09;;;;;;;2.1;1.9;;;;;;;24.03;45.58887;941.2098;;;;
2022/10/16 09:31:37;;;;;;;2.2;2;;;;;;;23.71;47.60254;941.2838;;;;
2022/10/16 09:34:04;;;;;;;2.8;2.5;;;;;;;23.57;47.02344;941.3209;;;;
2022/10/16 09:36:27;;;;;;;2;1.9;;;;;;;23.61;45.68555;941.2913;;;;
2022/10/16 09:38:53;;;;;;;2.1;1.9;;;;;;;23.25;47.10645;941.3244;;;;
2022/10/16 09:41:17;;;;;;;2.9;2.2;;;;;;;23.57;47.94141;941.3683;;;;
2022/10/16 09:43:44;;;;;;;2.1;1.9;;;;;;;23.76;47.0791;941.3486;;;;
2022/10/16 09:46:10;;;;;;;2.8;2.2;;;;;;;23.82;47.5791;941.4182;;;;
2022/10/16 09:48:35;;;;;;;2.1;1.9;;;;;;;23.58;46.08301;941.4102;;;;
2022/10/16 09:51:00;;;;;;;3.2;2.7;;;;;;;23.15;47.28418;941.3764;;;;
2022/10/16 09:53:26;;;;;;;2.6;2.2;;;;;;;23.43;48.13672;941.3835;;;;
2022/10/16 09:55:51;;;;;;;2.6;2.1;;;;;;;23.54;46.10352;941.3762;;;;
2022/10/16 09:58:16;;;;;;;2.8;1.8;;;;;;;23.51;47.04102;941.348;;;;
2022/10/16 10:00:41;;;;;;;2;1.8;;;;;;;23.54;46.58594;941.3064;;;;
2022/10/16 10:03:09;;;;;;;2;1.8;;;;;;;23.62;45.54688;941.3175;;;;
2022/10/16 10:05:38;;;;;;;1.9;1.8;;;;;;;23.72;46.25098;941.2315;;;;
2022/10/16 10:08:05;;;;;;;2.4;2.1;;;;;;;23.95;47.00488;941.2547;;;;
2022/10/16 10:10:33;;;;;;;2.1;1.9;;;;;;;24.42;43.82422;941.2223;;;;
2022/10/16 10:12:58;;;;;;;1.8;1.7;;;;;;;24.52;44.41309;941.2388;;;;
2022/10/16 10:15:26;;;;;;;2.5;1.9;;;;;;;24.46;43.75781;941.2535;;;;
2022/10/16 10:17:53;;;;;;;1.6;1.5;;;;;;;24.2;44.75781;941.2642;;;;
2022/10/16 10:20:21;;;;;;;2.5;1.6;;;;;;;24.19;45.14551;941.1802;;;;
2022/10/16 10:22:52;;;;;;;1.5;1.4;;;;;;;24.38;43.77344;941.1822;;;;
2022/10/16 10:25:19;;;;;;;2.2;1.6;;;;;;;24.4;43.75195;941.0919;;;;
2022/10/16 10:27:46;;;;;;;1.9;1.8;;;;;;;24.36;45.11621;941.0503;;;;
2022/10/16 10:30:11;;;;;;;1.6;1.5;;;;;;;24.63;43.49121;941.0709;;;;
2022/10/16 10:32:36;;;;;;;1.7;1.6;;;;;;;24.61;43.13672;941.0596;;;;
2022/10/16 10:35:02;;;;;;;2;1.5;;;;;;;24.79;41.51465;941.0441;;;;
2022/10/16 10:37:32;;;;;;;1.6;1.5;;;;;;;25.06;41.10254;941.0486;;;;
2022/10/16 10:40:00;;;;;;;1.7;1.6;;;;;;;25.41;43.55566;940.9913;;;;
2022/10/16 10:43:39;;;;;;;1.8;1.7;;;;;;;25.48;41.08203;941.0034;;;;
2022/10/16 10:46:01;;;;;;;1.4;1.3;;;;;;;25.9;41.12109;940.942;;;;
2022/10/16 10:48:26;;;;;;;2;1.5;;;;;;;26.1;38.54883;940.8711;;;;
2022/10/16 10:50:55;;;;;;;1.4;1.3;;;;;;;26.4;41.03711;940.8855;;;;
2022/10/16 10:53:20;;;;;;;2.1;1.6;;;;;;;26.77;38.47559;940.8125;;;;
2022/10/16 10:55:45;;;;;;;3;1.6;;;;;;;27.3;39.60156;940.843;;;;
2022/10/16 10:58:10;;;;;;;2.6;1.5;;;;;;;27.45;37.38379;940.8053;;;;
2022/10/16 11:00:38;;;;;;;1.6;1.5;;;;;;;26.92;37.44629;940.7592;;;;
2022/10/16 11:03:03;;;;;;;2.5;1.7;;;;;;;26.66;38.7041;940.7997;;;;
2022/10/16 11:05:32;;;;;;;1.6;1.4;;;;;;;27.52;38.86133;940.7953;;;;
2022/10/16 11:07:57;;;;;;;1.4;1.3;;;;;;;27.98;36.95313;940.7391;;;;
2022/10/16 11:10:22;;;;;;;1.4;1.3;;;;;;;28.31;35.12598;940.7788;;;;
2022/10/16 11:16:40;;;;;;;1.7;1.5;;;;;;;29.13;35.96289;940.76;;;;
2022/10/16 11:19:10;;;;;;;1.4;1.3;;;;;;;29.86;35.09082;940.7551;;;;
2022/10/16 11:21:35;;;;;;;1.6;1.5;;;;;;;29.35;34.83789;940.7545;;;;
2022/10/16 11:24:00;;;;;;;1.4;1.3;;;;;;;29.14;35.5;940.7322;;;;
2022/10/16 11:26:55;;;;;;;2;1.5;;;;;;;29.31;33.98828;940.7143;;;;
2022/10/16 11:29:41;;;;;;;2;1.4;;;;;;;30.71;33.63965;940.6483;;;;
2022/10/16 11:32:06;;;;;;;1.9;1.2;;;;;;;31.59;30.32813;940.6223;;;;
2022/10/16 11:34:31;;;;;;;1.3;1.2;;;;;;;32.59;29.61523;940.6284;;;;
2022/10/16 11:36:56;;;;;;;2.1;1.2;;;;;;;32.38;28.49805;940.5757;;;;
2022/10/16 11:39:21;;;;;;;1.5;1.2;;;;;;;32.1;28.67285;940.5826;;;;
2022/10/16 11:42:47;;;;;;;2.1;1.3;;;;;;;32.5;28.34961;940.52;;;;
2022/10/16 11:45:15;;;;;;;1.4;1.3;;;;;;;32.84;28.38379;940.5123;;;;
2022/10/16 11:47:45;;;;;;;1.5;1.1;;;;;;;33.45;29.5752;940.4579;;;;
2022/10/16 11:50:14;;;;;;;1.3;1.2;;;;;;;33.72;28.10059;940.4347;;;;
2022/10/16 11:52:41;;;;;;;1.1;1.1;;;;;;;33.97;27.22559;940.4091;;;;
2022/10/16 11:55:12;;;;;;;1.2;1.1;;;;;;;34.63;26.80762;940.3854;;;;
2022/10/16 11:57:38;;;;;;;1.5;1.1;;;;;;;35.03;25.94922;940.385;;;;
2022/10/16 12:00:03;;;;;;;1.6;1.1;;;;;;;36.6;24.00488;940.3447;;;;
2022/10/16 12:02:31;;;;;;;1.4;1.3;;;;;;;38.34;22.29883;940.3133;;;;
2022/10/16 12:05:00;;;;;;;1.3;1.1;;;;;;;38.83;19.98633;940.2868;;;;
2022/10/16 12:07:32;;;;;;;1.4;1.3;;;;;;;38.38;20.79297;940.2903;;;;
2022/10/16 12:10:00;;;;;;;1.1;1;;;;;;;40.94;18.81934;940.2781;;;;
2022/10/16 12:12:28;;;;;;;1.2;1.1;;;;;;;42.54;18.30762;940.231;;;;
2022/10/16 12:17:49;;;;;;;0.9;0.9;;;;;;;44.39;16.68164;940.1852;;;;
2022/10/16 12:20:20;;;;;;;5.1;1.2;;;;;;;45.42;15.79297;940.2438;;;;
2022/10/16 12:22:45;;;;;;;0.9;0.9;;;;;;;46.27;15.08008;940.235;;;;
2022/10/16 12:25:14;;;;;;;0.9;0.9;;;;;;;45.83;14.95508;940.2332;;;;
2022/10/16 12:27:42;;;;;;;1.2;1.1;;;;;;;46.3;14.30176;940.2267;;;;
2022/10/16 12:30:10;;;;;;;1;1;;;;;;;46.49;14.40723;940.1981;;;;
2022/10/16 12:32:35;;;;;;;1.3;1.2;;;;;;;47.31;13.72656;940.1699;;;;
2022/10/16 12:35:01;;;;;;;1;1;;;;;;;45.19;15.79785;940.1873;;;;
2022/10/16 12:37:33;;;;;;;1.1;1;;;;;;;45.92;14.52539;940.1662;;;;
2022/10/16 12:39:58;;;;;;;1.2;1.1;;;;;;;46.97;13.44434;940.0789;;;;
2022/10/16 12:42:59;;;;;;;1.1;1.1;;;;;;;45.76;15.39746;940.0811;;;;
2022/10/16 12:45:24;;;;;;;1;1;;;;;;;43.82;16.41602;940.0912;;;;
2022/10/16 12:47:53;;;;;;;2;1.2;;;;;;;42.6;17.3291;940.0737;;;;
2022/10/16 12:50:18;;;;;;;1.7;0.9;;;;;;;41.36;18.75098;940.0737;;;;
2022/10/16 12:52:45;;;;;;;0.8;0.8;;;;;;;40.88;19.48828;940.0563;;;;
2022/10/16 12:55:10;;;;;;;0.8;0.8;;;;;;;43.08;17.02734;940.0631;;;;
2022/10/16 12:57:38;;;;;;;1;1;;;;;;;43.62;17.33008;940.0327;;;;
2022/10/16 13:00:03;;;;;;;0.9;0.9;;;;;;;39.97;20.15723;940.0316;;;;
2022/10/16 13:02:32;;;;;;;1.7;0.9;;;;;;;41.55;18.36621;940.0689;;;;
2022/10/16 13:04:57;;;;;;;0.9;0.9;;;;;;;42.8;16.74707;940.007;;;;
2022/10/16 13:07:28;;;;;;;1;0.8;;;;;;;42.53;16.75;940.0249;;;;
2022/10/16 13:09:58;;;;;;;0.6;0.6;;;;;;;41.99;17.49023;940.0645;;;;
2022/10/16 13:12:23;;;;;;;0.6;0.6;;;;;;;38.42;21.17188;940.004;;;;
2022/10/16 13:14:48;;;;;;;0.6;0.6;;;;;;;40.47;18.82422;940.0032;;;;
2022/10/16 13:17:14;;;;;;;0.6;0.6;;;;;;;40.26;19.93848;940.0212;;;;
2022/10/16 13:19:39;;;;;;;0.8;0.8;;;;;;;40.86;18.87695;939.9967;;;;
2022/10/16 13:22:04;;;;;;;1;0.6;;;;;;;41.96;17.9541;940.0083;;;;
2022/10/16 13:24:29;;;;;;;0.5;0.4;;;;;;;41.33;18.3457;940.0208;;;;
2022/10/16 13:26:54;;;;;;;0.6;0.6;;;;;;;42.29;17.20703;939.9897;;;;
2022/10/16 13:29:20;;;;;;;0.5;0.5;;;;;;;40.57;18.63281;940.0041;;;;
2022/10/16 13:31:45;;;;;;;0.6;0.6;;;;;;;41.55;18.28027;940.0322;;;;
2022/10/16 13:34:10;;;;;;;1.5;0.7;;;;;;;41.73;18.26367;940.0275;;;;
2022/10/16 13:36:35;;;;;;;0.6;0.6;;;;;;;40.87;18.63281;939.9861;;;;
2022/10/16 13:39:02;;;;;;;0.7;0.7;;;;;;;41.95;17.52539;940.0044;;;;
2022/10/16 13:41:29;;;;;;;0.6;0.6;;;;;;;42.85;17.03125;940.0341;;;;
2022/10/16 13:43:55;;;;;;;0.7;0.7;;;;;;;42.35;17.28223;939.98;;;;
2022/10/16 13:46:19;;;;;;;0.5;0.5;;;;;;;42.29;16.9375;939.9947;;;;
2022/10/16 13:48:46;;;;;;;1;0.8;;;;;;;41.98;17.34277;940.0261;;;;
2022/10/16 13:51:15;;;;;;;0.9;0.9;;;;;;;41.65;17.62402;940.0109;;;;
2022/10/16 13:53:40;;;;;;;0.7;0.6;;;;;;;42.46;17.21289;939.9888;;;;
2022/10/16 13:56:05;;;;;;;0.5;0.5;;;;;;;41.2;18.6582;939.9973;;;;
2022/10/16 13:58:30;;;;;;;0.6;0.6;;;;;;;42.26;17.75781;939.9747;;;;
2022/10/16 14:01:00;;;;;;;0.6;0.6;;;;;;;43;17.13477;940.0064;;;;
2022/10/16 14:03:25;;;;;;;0.7;0.7;;;;;;;42.25;18.39453;939.9462;;;;
2022/10/16 14:05:50;;;;;;;1.2;0.8;;;;;;;42.54;17.52246;939.9892;;;;
2022/10/16 14:08:15;;;;;;;0.8;0.8;;;;;;;42.47;17.37305;940.0042;;;;
2022/10/16 14:10:43;;;;;;;0.7;0.7;;;;;;;42.27;17.69629;939.959;;;;
2022/10/16 14:13:08;;;;;;;0.8;0.8;;;;;;;41.75;18.12988;940.0508;;;;
2022/10/16 14:15:37;;;;;;;0.8;0.6;;;;;;;41.99;17.74707;940.0467;;;;
2022/10/16 14:18:02;;;;;;;0.7;0.7;;;;;;;41.9;18.08691;940.0157;;;;
2022/10/16 14:20:30;;;;;;;1.6;0.8;;;;;;;41.75;18.34961;940.0051;;;;
2022/10/16 14:22:55;;;;;;;0.7;0.7;;;;;;;41.55;18.3418;940.0405;;;;
2022/10/16 14:25:22;;;;;;;1.6;0.9;;;;;;;40.88;18.86523;939.9812;;;;
2022/10/16 14:27:47;;;;;;;0.6;0.6;;;;;;;40.82;18.8877;939.9641;;;;
2022/10/16 14:30:18;;;;;;;1.2;0.8;;;;;;;40.62;19.16016;939.9942;;;;
2022/10/16 14:32:43;;;;;;;1.1;0.7;;;;;;;39.84;19.60352;939.9613;;;;
2022/10/16 14:35:08;;;;;;;1;0.9;;;;;;;39.48;20.22168;939.9462;;;;
2022/10/16 14:37:36;;;;;;;0.8;0.6;;;;;;;39.08;20.66699;939.9447;;;;
2022/10/16 14:40:02;;;;;;;1.3;0.8;;;;;;;39.59;20.49414;939.9639;;;;
2022/10/16 14:42:30;;;;;;;0.7;0.7;;;;;;;39.94;20.2168;939.9205;;;;
2022/10/16 14:44:55;;;;;;;0.7;0.7;;;;;;;39.35;20.55664;939.9361;;;;
2022/10/16 14:47:22;;;;;;;1.3;0.8;;;;;;;39.63;20.61719;939.993;;;;
2022/10/16 14:49:49;;;;;;;1.9;0.8;;;;;;;40.14;20.4209;939.9844;;;;
2022/10/16 14:52:14;;;;;;;0.9;0.6;;;;;;;39.42;20.31641;940.0126;;;;
2022/10/16 14:54:41;;;;;;;0.6;0.6;;;;;;;39.54;20.56543;939.9986;;;;
2022/10/16 15:00:38;;;;;;;0.8;0.8;;;;;;;39.27;20.77246;940.0327;;;;
2022/10/16 15:03:11;;;;;;;0.9;0.9;;;;;;;37.26;21.90625;940.0415;;;;
2022/10/16 15:05:39;;;;;;;0.7;0.7;;;;;;;36.04;23.56543;940.0784;;;;
2022/10/16 15:08:06;;;;;;;0.9;0.7;;;;;;;36.72;23.35742;940.1795;;;;
2022/10/16 15:10:31;;;;;;;0.9;0.6;;;;;;;34.65;25.34961;940.0978;;;;
2022/10/16 15:12:57;;;;;;;2.3;0.7;;;;;;;34.21;26.34863;940.1205;;;;
2022/10/16 15:15:22;;;;;;;0.9;0.7;;;;;;;33.3;27.15039;940.14;;;;
2022/10/16 15:17:52;;;;;;;0.7;0.5;;;;;;;32.42;28.52441;940.1819;;;;
2022/10/16 15:20:17;;;;;;;1.5;0.7;;;;;;;31.66;29.75781;940.1954;;;;
2022/10/16 15:22:45;;;;;;;1.3;0.7;;;;;;;30.24;31.56348;940.1905;;;;
2022/10/16 15:25:10;;;;;;;0.8;0.7;;;;;;;29.33;32.58398;940.2064;;;;
2022/10/16 15:27:39;;;;;;;0.5;0.5;;;;;;;29.02;33.34766;940.242;;;;
2022/10/16 15:30:01;;;;;;;0.8;0.8;;;;;;;27.5;36.97266;940.2833;;;;
2022/10/16 15:32:26;;;;;;;1.2;1.1;;;;;;;26.31;38.3418;940.2645;;;;
2022/10/16 15:35:37;;;;;;;1.3;1.1;;;;;;;25.7;40.54688;940.313;;;;
2022/10/16 15:38:07;;;;;;;1.5;1.1;;;;;;;25.03;42.0791;940.4163;;;;
2022/10/16 15:40:33;;;;;;;0.8;0.8;;;;;;;24.86;42.79492;940.4437;;;;